createdAt,value
2019-02-28T00:00:27.512Z,11.43
2019-02-28T00:02:55.975Z,12.60
2019-02-28T00:05:24.458Z,12.97
2019-02-28T00:07:53.028Z,12.20
2019-02-28T00:10:21.507Z,12.47
2019-02-28T00:12:49.980Z,13.20
2019-02-28T00:15:18.476Z,12.80
2019-02-28T00:17:46.954Z,13.20
2019-02-28T00:20:15.412Z,13.30
2019-02-28T00:22:48.412Z,14.70
2019-02-28T00:25:14.107Z,12.83
2019-02-28T00:27:42.572Z,13.23
2019-02-28T00:30:13.583Z,14.97
2019-02-28T00:32:42.045Z,13.57
2019-02-28T00:35:13.379Z,14.30
2019-02-28T00:37:40.865Z,13.67
2019-02-28T00:40:10.566Z,15.00
2019-02-28T00:42:39.033Z,15.43
2019-02-28T00:45:16.383Z,13.60
2019-02-28T00:47:47.513Z,15.30
2019-02-28T00:50:15.809Z,14.90
2019-02-28T00:52:44.321Z,15.50
2019-02-28T00:55:15.233Z,14.57
2019-02-28T00:57:44.031Z,16.10
2019-02-28T01:00:20.356Z,14.90
2019-02-28T01:02:52.108Z,16.17
2019-02-28T01:05:19.022Z,15.40
2019-02-28T01:07:48.945Z,15.33
2019-02-28T01:10:17.644Z,15.80
2019-02-28T01:12:46.111Z,16.73
2019-02-28T01:15:18.368Z,17.70
2019-02-28T01:17:46.831Z,17.00
2019-02-28T01:20:16.593Z,15.40
2019-02-28T01:22:45.414Z,17.90
2019-02-28T01:25:18.260Z,18.33
2019-02-28T01:27:46.731Z,19.07
2019-02-28T01:30:16.081Z,18.20
2019-02-28T01:32:49.736Z,18.63
2019-02-28T01:35:15.040Z,19.17
2019-02-28T01:37:43.525Z,19.83
2019-02-28T01:40:13.628Z,19.03
2019-02-28T01:42:42.091Z,18.70
2019-02-28T01:45:12.129Z,23.10
2019-02-28T01:47:40.670Z,18.17
2019-02-28T01:50:12.215Z,19.97
2019-02-28T01:52:44.452Z,20.20
2019-02-28T01:55:11.433Z,21.53
2019-02-28T01:57:44.081Z,21.73
2019-02-28T02:00:15.392Z,22.80
2019-02-28T02:02:43.924Z,23.03
2019-02-28T02:05:12.446Z,22.43
2019-02-28T02:07:41.033Z,22.67
2019-02-28T02:10:17.527Z,23.63
2019-02-28T02:12:45.945Z,23.77
2019-02-28T02:15:16.905Z,24.13
2019-02-28T02:17:44.645Z,24.37
2019-02-28T02:20:14.645Z,27.03
2019-02-28T02:22:44.427Z,24.20
2019-02-28T02:25:13.404Z,26.90
2019-02-28T02:27:41.882Z,25.13
2019-02-28T02:30:21.357Z,25.83
2019-02-28T02:32:49.823Z,27.27
2019-02-28T02:35:18.293Z,27.30
2019-02-28T02:37:46.814Z,29.93
2019-02-28T02:40:18.031Z,26.90
2019-02-28T02:42:48.553Z,30.93
2019-02-28T02:45:16.724Z,30.47
2019-02-28T02:47:45.262Z,30.13
2019-02-28T02:50:14.770Z,31.20
2019-02-28T02:52:45.189Z,33.60
2019-02-28T02:55:14.285Z,32.53
2019-02-28T02:57:42.755Z,32.30
2019-02-28T03:00:19.205Z,32.43
2019-02-28T03:02:47.690Z,32.53
2019-02-28T03:05:16.316Z,31.93
2019-02-28T03:07:44.833Z,32.87
2019-02-28T03:10:17.983Z,34.30
2019-02-28T03:12:47.365Z,32.07
2019-02-28T03:15:16.921Z,34.10
2019-02-28T03:17:47.126Z,34.03
2019-02-28T03:20:15.635Z,34.90
2019-02-28T03:22:44.192Z,37.23
2019-02-28T03:25:17.234Z,35.20
2019-02-28T03:27:45.765Z,33.70
2019-02-28T03:30:26.157Z,35.57
2019-02-28T03:32:46.522Z,36.60
2019-02-28T03:35:15.035Z,36.43
2019-02-28T03:37:43.583Z,36.63
2019-02-28T03:40:13.196Z,38.93
2019-02-28T03:42:41.649Z,36.03
2019-02-28T03:45:17.069Z,38.33
2019-02-28T03:47:45.522Z,38.50
2019-02-28T03:50:14.145Z,37.77
2019-02-28T03:52:44.415Z,37.83
2019-02-28T03:55:14.104Z,40.17
2019-02-28T03:57:42.586Z,40.27
2019-02-28T04:00:24.026Z,40.10
2019-02-28T04:02:56.909Z,40.33
2019-02-28T04:05:28.027Z,40.53
2019-02-28T04:07:54.833Z,43.10
2019-02-28T04:10:23.086Z,40.43
2019-02-28T04:12:51.561Z,44.17
2019-02-28T04:15:20.701Z,43.10
2019-02-28T04:17:49.213Z,44.67
2019-02-28T04:20:17.794Z,44.77
2019-02-28T04:22:46.319Z,46.60
2019-02-28T04:25:14.770Z,45.43
2019-02-28T04:27:43.232Z,45.00
2019-02-28T04:30:14.048Z,45.97
2019-02-28T04:32:42.526Z,46.13
2019-02-28T04:35:11.337Z,46.83
2019-02-28T04:37:45.037Z,48.83
2019-02-28T04:40:13.878Z,47.13
2019-02-28T04:42:42.416Z,47.73
2019-02-28T04:45:12.541Z,46.23
2019-02-28T04:47:41.654Z,45.93
2019-02-28T04:50:11.536Z,47.73
2019-02-28T04:52:40.023Z,50.73
2019-02-28T04:55:09.430Z,48.00
2019-02-28T04:57:38.558Z,50.80
2019-02-28T05:00:10.316Z,55.60
2019-02-28T05:02:38.765Z,52.57
2019-02-28T05:05:12.084Z,49.23
2019-02-28T05:07:37.544Z,51.50
2019-02-28T05:10:07.952Z,51.43
2019-02-28T05:12:39.879Z,51.43
2019-02-28T05:15:09.161Z,49.57
2019-02-28T05:17:37.623Z,49.90
2019-02-28T05:20:11.051Z,49.97
2019-02-28T05:22:39.777Z,49.23
2019-02-28T05:25:10.440Z,51.67
2019-02-28T05:27:38.921Z,47.87
2019-02-28T05:30:10.594Z,49.30
2019-02-28T05:32:39.056Z,49.77
2019-02-28T05:35:07.595Z,52.00
2019-02-28T05:37:36.098Z,51.70
2019-02-28T05:40:07.891Z,55.17
2019-02-28T05:42:36.367Z,52.33
2019-02-28T05:45:06.518Z,50.13
2019-02-28T05:47:45.774Z,52.47
2019-02-28T05:50:07.329Z,48.40
2019-02-28T05:52:35.833Z,49.37
2019-02-28T05:55:04.770Z,54.67
2019-02-28T05:57:33.229Z,55.70
2019-02-28T06:00:02.966Z,53.07
2019-02-28T06:02:31.575Z,52.60
2019-02-28T06:05:00.050Z,51.50
2019-02-28T06:07:29.478Z,52.73
2019-02-28T06:09:58.120Z,54.30
2019-02-28T06:12:26.574Z,53.53
2019-02-28T06:14:55.074Z,51.60
2019-02-28T06:17:23.532Z,53.33
2019-02-28T06:19:52.000Z,56.33
2019-02-28T06:22:20.505Z,52.50
2019-02-28T06:24:48.960Z,54.70
2019-02-28T06:27:17.439Z,54.90
2019-02-28T06:29:48.729Z,52.27
2019-02-28T06:32:17.214Z,52.10
2019-02-28T06:34:45.679Z,55.10
2019-02-28T06:37:14.196Z,55.93
2019-02-28T06:39:43.322Z,52.40
2019-02-28T06:42:12.590Z,55.80
2019-02-28T06:44:41.411Z,51.50
2019-02-28T06:47:11.341Z,54.87
2019-02-28T06:49:41.809Z,54.47
2019-02-28T06:52:10.656Z,56.90
2019-02-28T06:54:39.926Z,55.77
2019-02-28T06:57:09.369Z,53.83
2019-02-28T06:59:39.813Z,55.93
2019-02-28T07:02:09.017Z,56.97
2019-02-28T07:04:37.625Z,57.00
2019-02-28T07:07:07.364Z,54.83
2019-02-28T07:09:37.182Z,54.37
2019-02-28T07:12:05.682Z,59.57
2019-02-28T07:14:34.178Z,57.70
2019-02-28T07:17:02.630Z,55.30
2019-02-28T07:19:31.095Z,54.07
2019-02-28T07:21:59.610Z,59.47
2019-02-28T07:24:28.090Z,56.37
2019-02-28T07:26:56.538Z,54.87
2019-02-28T07:29:25.023Z,58.70
2019-02-28T07:31:59.835Z,52.30
2019-02-28T07:34:24.040Z,50.87
2019-02-28T07:36:52.588Z,50.27
2019-02-28T07:39:21.066Z,53.20
2019-02-28T07:41:49.547Z,54.30
2019-02-28T07:44:21.457Z,46.63
2019-02-28T07:46:48.254Z,53.90
2019-02-28T07:49:16.747Z,52.77
2019-02-28T07:51:45.218Z,49.40
2019-02-28T07:54:15.825Z,53.13
2019-02-28T07:56:44.298Z,55.90
2019-02-28T07:59:12.976Z,49.67
2019-02-28T08:01:42.055Z,55.33
2019-02-28T08:04:10.650Z,58.80
2019-02-28T08:06:40.428Z,54.70
2019-02-28T08:09:21.122Z,55.50
2019-02-28T08:11:51.600Z,60.70
2019-02-28T08:14:20.180Z,56.43
2019-02-28T08:16:48.650Z,46.47
2019-02-28T08:19:17.180Z,57.07
2019-02-28T08:21:50.264Z,39.70
2019-02-28T08:24:15.843Z,44.93
2019-02-28T08:26:44.355Z,50.73
2019-02-28T08:29:12.808Z,56.60
2019-02-28T08:31:41.287Z,40.43
2019-02-28T08:34:09.790Z,48.10
2019-02-28T08:36:38.263Z,46.57
2019-02-28T08:39:10.071Z,40.60
2019-02-28T08:41:40.003Z,46.23
2019-02-28T08:44:08.477Z,42.33
2019-02-28T08:46:36.946Z,52.30
2019-02-28T08:49:07.188Z,37.70
2019-02-28T08:51:35.876Z,55.77
2019-02-28T08:54:06.040Z,52.80
2019-02-28T08:56:34.694Z,41.27
2019-02-28T08:59:11.629Z,53.13
2019-02-28T09:01:33.352Z,53.07
2019-02-28T09:04:05.091Z,48.90
2019-02-28T09:06:32.296Z,53.83
2019-02-28T09:09:00.775Z,56.50
2019-02-28T09:11:29.274Z,53.97
2019-02-28T09:13:57.738Z,49.67
2019-02-28T09:16:26.214Z,49.03
2019-02-28T09:18:57.427Z,42.87
2019-02-28T09:21:24.895Z,52.50
2019-02-28T09:23:53.358Z,58.27
2019-02-28T09:26:21.879Z,58.50
2019-02-28T09:28:50.347Z,57.00
2019-02-28T09:31:18.817Z,59.53
2019-02-28T09:33:47.340Z,52.70
2019-02-28T09:36:20.260Z,54.73
2019-02-28T09:38:46.027Z,62.30
2019-02-28T09:41:14.532Z,57.50
2019-02-28T09:43:43.004Z,41.00
2019-02-28T09:46:12.526Z,44.77
2019-02-28T09:48:41.708Z,42.33
2019-02-28T09:51:11.865Z,40.87
2019-02-28T09:53:40.349Z,53.30
2019-02-28T09:56:10.092Z,55.90
2019-02-28T09:58:40.019Z,55.03
2019-02-28T10:01:08.595Z,50.13
2019-02-28T10:03:37.065Z,46.20
2019-02-28T10:06:06.608Z,41.17
2019-02-28T10:08:36.891Z,45.07
2019-02-28T10:11:05.380Z,50.70
2019-02-28T10:13:33.853Z,48.90
2019-02-28T10:16:02.353Z,53.67
2019-02-28T10:18:30.820Z,61.20
2019-02-28T10:21:01.860Z,51.90
2019-02-28T10:23:31.154Z,29.93
2019-02-28T10:25:59.613Z,40.23
2019-02-28T10:28:28.071Z,53.03
2019-02-28T10:30:56.581Z,59.57
2019-02-28T10:33:25.111Z,55.60
2019-02-28T10:35:53.579Z,46.10
2019-02-28T10:38:22.102Z,48.10
2019-02-28T10:40:52.461Z,41.60
2019-02-28T10:43:20.791Z,44.57
2019-02-28T10:45:49.375Z,47.13
2019-02-28T10:48:17.845Z,48.87
2019-02-28T10:50:46.333Z,48.63
2019-02-28T10:53:14.842Z,39.80
2019-02-28T10:55:43.459Z,34.97
2019-02-28T10:58:12.540Z,41.30
2019-02-28T11:00:44.417Z,39.53
2019-02-28T11:03:12.958Z,29.90
2019-02-28T11:05:43.750Z,48.50
2019-02-28T11:08:18.921Z,45.33
2019-02-28T11:10:47.215Z,46.97
2019-02-28T11:13:20.465Z,42.00
2019-02-28T11:15:49.709Z,32.27
2019-02-28T11:18:18.308Z,46.93
2019-02-28T11:20:46.903Z,35.57
2019-02-28T11:23:15.941Z,42.10
2019-02-28T11:25:44.687Z,43.47
2019-02-28T11:28:14.022Z,40.37
2019-02-28T11:30:45.587Z,34.73
2019-02-28T11:33:14.649Z,38.57
2019-02-28T11:35:43.179Z,42.87
2019-02-28T11:38:12.254Z,40.97
2019-02-28T11:40:43.657Z,38.63
2019-02-28T11:43:10.968Z,34.80
2019-02-28T11:45:44.350Z,35.10
2019-02-28T11:48:25.043Z,39.30
2019-02-28T11:50:53.537Z,44.40
2019-02-28T11:53:22.016Z,38.20
2019-02-28T11:55:53.471Z,42.60
2019-02-28T11:58:21.263Z,36.50
2019-02-28T12:00:49.815Z,35.60
2019-02-28T12:03:18.292Z,36.63
2019-02-28T12:05:50.066Z,38.70
2019-02-28T12:08:17.016Z,33.90
2019-02-28T12:10:46.561Z,33.97
2019-02-28T12:13:16.434Z,34.80
2019-02-28T12:15:47.171Z,37.70
2019-02-28T12:18:15.534Z,35.30
2019-02-28T12:20:44.975Z,38.70
2019-02-28T12:23:13.447Z,30.47
2019-02-28T12:25:42.831Z,31.77
2019-02-28T12:28:12.453Z,34.30
2019-02-28T12:30:40.915Z,31.77
2019-02-28T12:33:09.388Z,32.00
2019-02-28T12:35:40.472Z,26.97
2019-02-28T12:38:08.141Z,32.40
2019-02-28T12:40:38.751Z,32.80
2019-02-28T12:43:09.726Z,29.10
2019-02-28T12:45:39.951Z,33.23
2019-02-28T12:48:08.492Z,34.57
2019-02-28T12:50:37.014Z,32.30
2019-02-28T12:53:05.534Z,30.73
2019-02-28T12:55:35.477Z,32.17
2019-02-28T12:58:04.201Z,32.60
2019-02-28T13:00:40.826Z,34.10
2019-02-28T13:03:09.987Z,36.20
2019-02-28T13:05:38.593Z,29.30
2019-02-28T13:08:07.226Z,26.27
2019-02-28T13:10:35.880Z,32.30
2019-02-28T13:13:06.864Z,33.07
2019-02-28T13:15:35.097Z,26.90
2019-02-28T13:18:07.548Z,22.50
2019-02-28T13:20:36.503Z,27.30
2019-02-28T13:23:09.386Z,28.30
2019-02-28T13:25:37.902Z,26.60
2019-02-28T13:28:09.614Z,26.70
2019-02-28T13:30:40.049Z,28.67
2019-02-28T13:33:11.034Z,27.73
2019-02-28T13:35:46.947Z,28.70
2019-02-28T13:38:17.342Z,28.93
2019-02-28T13:40:44.841Z,27.17
2019-02-28T13:43:19.652Z,25.37
2019-02-28T13:45:43.993Z,27.40
2019-02-28T13:48:12.608Z,29.20
2019-02-28T13:50:41.079Z,27.90
2019-02-28T13:53:18.569Z,26.33
2019-02-28T13:55:40.457Z,30.70
2019-02-28T13:58:08.995Z,27.00
2019-02-28T14:00:43.685Z,24.53
2019-02-28T14:03:12.975Z,31.00
2019-02-28T14:05:43.762Z,25.93
2019-02-28T14:08:12.550Z,28.07
2019-02-28T14:10:41.542Z,27.80
2019-02-28T14:13:10.066Z,26.03
2019-02-28T14:15:42.524Z,26.77
2019-02-28T14:18:11.624Z,26.00
2019-02-28T14:20:40.182Z,24.83
2019-02-28T14:23:08.829Z,24.90
2019-02-28T14:25:39.671Z,25.40
2019-02-28T14:28:07.518Z,23.43
2019-02-28T14:30:35.974Z,25.40
2019-02-28T14:33:04.675Z,25.43
2019-02-28T14:35:35.187Z,25.83
2019-02-28T14:38:03.370Z,30.80
2019-02-28T14:40:31.827Z,27.20
2019-02-28T14:43:00.331Z,25.23
2019-02-28T14:45:31.238Z,23.60
2019-02-28T14:48:00.794Z,26.27
2019-02-28T14:50:30.005Z,22.77
2019-02-28T14:52:58.624Z,21.57
2019-02-28T14:55:29.228Z,24.63
2019-02-28T14:57:57.627Z,21.90
2019-02-28T15:00:31.738Z,19.63
2019-02-28T15:03:03.104Z,21.47
2019-02-28T15:05:34.480Z,21.57
2019-02-28T15:08:03.403Z,21.40
2019-02-28T15:10:34.198Z,22.30
2019-02-28T15:13:02.267Z,22.17
2019-02-28T15:15:30.815Z,22.30
2019-02-28T15:17:59.767Z,24.23
2019-02-28T15:20:31.752Z,25.00
2019-02-28T15:22:59.622Z,22.47
2019-02-28T15:25:29.786Z,24.90
2019-02-28T15:27:59.857Z,24.40
2019-02-28T15:30:33.754Z,25.83
2019-02-28T15:33:03.294Z,22.60
2019-02-28T15:35:31.875Z,23.70
2019-02-28T15:38:00.406Z,23.70
2019-02-28T15:40:37.120Z,27.20
2019-02-28T15:43:05.593Z,25.93
2019-02-28T15:45:36.331Z,24.37
2019-02-28T15:48:04.357Z,27.00
2019-02-28T15:50:32.893Z,28.00
2019-02-28T15:53:01.364Z,16.93
2019-02-28T15:55:29.960Z,20.07
2019-02-28T15:57:58.418Z,23.73
2019-02-28T16:00:34.789Z,21.57
2019-02-28T16:03:03.260Z,23.33
2019-02-28T16:05:31.712Z,25.83
2019-02-28T16:08:00.230Z,18.87
2019-02-28T16:10:32.893Z,21.77
2019-02-28T16:13:01.554Z,23.03
2019-02-28T16:15:30.072Z,15.40
2019-02-28T16:17:58.668Z,20.90
2019-02-28T16:20:31.613Z,23.00
2019-02-28T16:22:58.508Z,21.27
2019-02-28T16:25:29.705Z,19.77
2019-02-28T16:27:58.190Z,20.90
2019-02-28T16:30:28.711Z,21.63
2019-02-28T16:32:56.882Z,18.67
2019-02-28T16:35:25.338Z,21.37
2019-02-28T16:37:53.865Z,20.70
2019-02-28T16:40:26.957Z,21.40
2019-02-28T16:42:55.438Z,20.47
2019-02-28T16:45:27.570Z,22.27
2019-02-28T16:47:59.573Z,20.50
2019-02-28T16:50:26.279Z,17.63
2019-02-28T16:52:54.832Z,21.23
2019-02-28T16:55:23.303Z,16.70
2019-02-28T16:57:51.770Z,21.10
2019-02-28T17:00:20.810Z,20.90
2019-02-28T17:02:49.269Z,21.13
2019-02-28T17:05:17.755Z,21.50
2019-02-28T17:07:46.235Z,18.93
2019-02-28T17:10:17.782Z,20.97
2019-02-28T17:12:47.973Z,20.93
2019-02-28T17:15:19.586Z,17.47
2019-02-28T17:17:52.930Z,17.40
2019-02-28T17:20:21.388Z,17.27
2019-02-28T17:22:50.998Z,18.87
2019-02-28T17:25:21.679Z,17.70
2019-02-28T17:27:51.370Z,19.40
2019-02-28T17:30:37.027Z,19.67
2019-02-28T17:33:08.736Z,17.23
2019-02-28T17:35:35.903Z,18.80
2019-02-28T17:38:04.396Z,16.40
2019-02-28T17:40:32.853Z,15.30
2019-02-28T17:43:01.299Z,18.60
2019-02-28T17:45:29.951Z,17.20
2019-02-28T17:48:29.982Z,18.20
2019-02-28T17:51:15.006Z,17.00
2019-02-28T17:54:03.172Z,17.43
2019-02-28T17:57:00.558Z,17.67
2019-02-28T17:59:56.075Z,20.53
2019-02-28T18:02:33.800Z,17.43
2019-02-28T18:05:30.325Z,17.63
2019-02-28T18:08:13.006Z,16.93
2019-02-28T18:10:59.232Z,18.27
2019-02-28T18:13:55.254Z,18.97
2019-02-28T18:16:47.164Z,17.33
2019-02-28T18:19:33.319Z,14.80
2019-02-28T18:22:19.027Z,17.97
2019-02-28T18:25:00.632Z,16.03
2019-02-28T18:28:03.399Z,19.60
2019-02-28T18:30:51.488Z,16.13
2019-02-28T18:33:19.964Z,16.20
2019-02-28T18:35:48.418Z,19.70
2019-02-28T18:38:36.589Z,17.47
2019-02-28T18:41:06.433Z,17.37
2019-02-28T18:43:35.708Z,17.67
2019-02-28T18:46:04.740Z,18.20
2019-02-28T18:48:33.197Z,18.47
2019-02-28T18:51:01.659Z,17.40
2019-02-28T18:53:30.147Z,17.93
2019-02-28T18:55:59.249Z,19.60
2019-02-28T18:58:27.694Z,17.67
2019-02-28T19:00:56.201Z,18.37
2019-02-28T19:03:24.661Z,18.30
2019-02-28T19:05:53.341Z,20.55
2019-02-28T19:08:21.840Z,17.90
2019-02-28T19:10:50.510Z,19.13
2019-02-28T19:13:19.451Z,19.30
2019-02-28T19:15:47.955Z,19.10
2019-02-28T19:18:16.421Z,16.07
2019-02-28T19:20:44.938Z,18.77
2019-02-28T19:23:13.432Z,20.93
2019-02-28T19:25:43.797Z,20.50
2019-02-28T19:28:12.275Z,21.70
2019-02-28T19:30:40.792Z,18.53
2019-02-28T19:33:09.254Z,17.40
2019-02-28T19:35:37.735Z,17.60
2019-02-28T19:38:06.233Z,16.73
2019-02-28T19:40:34.677Z,18.10
2019-02-28T19:43:03.132Z,17.30
2019-02-28T19:45:34.885Z,18.23
2019-02-28T19:48:03.387Z,17.03
2019-02-28T19:50:31.865Z,16.83
2019-02-28T19:53:00.366Z,17.07
2019-02-28T19:55:28.908Z,18.23
2019-02-28T19:57:57.402Z,19.07
2019-02-28T20:00:25.886Z,18.53
2019-02-28T20:02:54.453Z,18.43
2019-02-28T20:05:22.922Z,17.50
2019-02-28T20:07:51.402Z,18.20
2019-02-28T20:10:22.710Z,18.50
2019-02-28T20:12:51.175Z,19.30
2019-02-28T20:15:23.032Z,18.27
2019-02-28T20:17:51.557Z,18.73
2019-02-28T20:20:23.741Z,18.13
2019-02-28T20:22:52.239Z,17.60
2019-02-28T20:25:20.759Z,17.40
2019-02-28T20:27:49.442Z,17.30
2019-02-28T20:30:19.080Z,20.67
2019-02-28T20:32:47.629Z,18.80
2019-02-28T20:35:16.275Z,19.10
2019-02-28T20:37:44.763Z,18.67
2019-02-28T20:40:27.913Z,15.90
2019-02-28T20:42:56.419Z,19.90
2019-02-28T20:45:24.890Z,18.07
2019-02-28T20:47:53.371Z,19.03
2019-02-28T20:50:27.601Z,20.53
2019-02-28T20:52:56.079Z,17.73
2019-02-28T20:55:24.539Z,19.30
2019-02-28T20:57:53.019Z,18.90
2019-02-28T21:00:23.143Z,17.10
2019-02-28T21:02:51.607Z,19.97
2019-02-28T21:05:20.116Z,18.13
2019-02-28T21:07:48.602Z,20.33
2019-02-28T21:10:17.154Z,19.13
2019-02-28T21:12:45.660Z,20.43
2019-02-28T21:15:14.114Z,18.83
2019-02-28T21:17:42.562Z,21.17
2019-02-28T21:20:13.105Z,21.00
2019-02-28T21:22:41.599Z,20.17
2019-02-28T21:25:12.877Z,20.93
2019-02-28T21:27:41.378Z,20.63
2019-02-28T21:30:20.875Z,20.07
2019-02-28T21:32:49.551Z,21.50
2019-02-28T21:35:18.246Z,21.77
2019-02-28T21:37:47.854Z,20.37
2019-02-28T21:40:18.880Z,19.57
2019-02-28T21:42:47.328Z,22.57
2019-02-28T21:45:28.659Z,21.83
2019-02-28T21:47:57.136Z,23.13
2019-02-28T21:50:25.598Z,22.43
2019-02-28T21:52:54.107Z,23.93
2019-02-28T21:55:22.584Z,24.83
2019-02-28T21:57:51.028Z,21.93
2019-02-28T22:00:27.424Z,18.90
2019-02-28T22:02:55.891Z,24.10
2019-02-28T22:05:24.368Z,19.70
2019-02-28T22:07:52.939Z,22.33
2019-02-28T22:10:21.396Z,22.20
2019-02-28T22:12:49.869Z,20.67
2019-02-28T22:15:21.090Z,19.40
2019-02-28T22:17:49.537Z,21.57
2019-02-28T22:20:18.007Z,20.60
2019-02-28T22:22:46.578Z,18.43
2019-02-28T22:25:16.018Z,21.27
2019-02-28T22:27:44.483Z,22.20
2019-02-28T22:30:24.982Z,21.40
2019-02-28T22:32:55.314Z,23.10
2019-02-28T22:35:25.427Z,21.37
2019-02-28T22:37:53.927Z,21.73
2019-02-28T22:40:22.385Z,20.67
2019-02-28T22:42:51.257Z,20.57
2019-02-28T22:45:19.916Z,19.30
2019-02-28T22:47:48.387Z,22.13
2019-02-28T22:50:16.907Z,21.83
2019-02-28T22:52:45.433Z,22.20
2019-02-28T22:55:13.905Z,21.57
2019-02-28T22:57:42.373Z,21.47
2019-02-28T23:00:16.808Z,20.40
2019-02-28T23:02:45.345Z,20.33
2019-02-28T23:05:13.804Z,20.87
2019-02-28T23:07:42.304Z,21.47
2019-02-28T23:10:10.829Z,20.50
2019-02-28T23:12:39.291Z,20.87
2019-02-28T23:15:07.879Z,20.20
2019-02-28T23:17:36.335Z,20.03
2019-02-28T23:20:07.031Z,18.30
2019-02-28T23:22:35.532Z,18.87
2019-02-28T23:25:04.369Z,18.97
2019-02-28T23:27:32.838Z,19.77
2019-02-28T23:30:07.619Z,17.73
2019-02-28T23:32:44.738Z,17.93
2019-02-28T23:35:17.452Z,19.63
2019-02-28T23:37:45.896Z,17.40
2019-02-28T23:40:14.402Z,18.80
2019-02-28T23:42:42.861Z,17.80
2019-02-28T23:45:11.382Z,17.60
2019-02-28T23:47:39.852Z,17.87
2019-02-28T23:50:09.694Z,18.00
2019-02-28T23:52:38.155Z,19.43
2019-02-28T23:55:08.450Z,17.90
2019-02-28T23:57:36.962Z,17.00
